createdAt,value
2019-01-20T00:21:59.674Z,-4.09
2019-01-20T00:24:28.833Z,-4.11
2019-01-20T00:26:58.333Z,-4.15
2019-01-20T00:29:28.050Z,-4.14
2019-01-20T00:31:57.514Z,-4.09
2019-01-20T00:34:27.003Z,-4.01
2019-01-20T00:36:56.286Z,-4.10
2019-01-20T00:39:25.755Z,-4.15
2019-01-20T00:41:55.259Z,-4.21
2019-01-20T00:44:24.434Z,-4.24
2019-01-20T00:46:53.960Z,-4.29
2019-01-20T00:49:23.124Z,-4.34
2019-01-20T00:52:11.666Z,-4.32
2019-01-20T00:54:41.189Z,-4.35
2019-01-20T00:57:10.647Z,-4.32
2019-01-20T00:59:39.839Z,-4.35
2019-01-20T01:02:09.036Z,-4.36
2019-01-20T01:04:38.215Z,-4.34
2019-01-20T01:07:07.418Z,-4.39
2019-01-20T01:09:36.610Z,-4.37
2019-01-20T01:17:22.483Z,-4.43
2019-01-20T01:19:51.911Z,-4.43
2019-01-20T01:22:21.110Z,-4.43
2019-01-20T01:24:50.282Z,-4.47
2019-01-20T01:27:20.057Z,-4.45
2019-01-20T01:29:49.497Z,-4.49
2019-01-20T01:32:19.165Z,-4.50
2019-01-20T01:34:48.339Z,-4.54
2019-01-20T01:37:17.787Z,-4.57
2019-01-20T01:39:46.971Z,-4.63
2019-01-20T01:42:16.147Z,-4.61
2019-01-20T01:44:45.365Z,-4.59
2019-01-20T01:47:14.540Z,-4.55
2019-01-20T01:49:43.740Z,-4.57
2019-01-20T01:52:13.447Z,-4.58
2019-01-20T01:54:43.033Z,-4.61
2019-01-20T01:57:12.197Z,-4.62
2019-01-20T01:59:41.971Z,-4.60
2019-01-20T02:02:11.140Z,-4.58
2019-01-20T02:04:40.333Z,-4.57
2019-01-20T02:07:09.526Z,-4.51
2019-01-20T02:09:39.392Z,-4.47
2019-01-20T02:12:08.845Z,-4.43
2019-01-20T02:14:38.047Z,-4.39
2019-01-20T02:17:08.550Z,-4.32
2019-01-20T02:19:38.024Z,-4.31
2019-01-20T02:22:07.198Z,-4.35
2019-01-20T02:24:36.634Z,-4.33
2019-01-20T02:27:06.211Z,-4.28
2019-01-20T02:29:35.393Z,-4.26
2019-01-20T02:32:04.742Z,-4.27
2019-01-20T02:34:34.199Z,-4.31
2019-01-20T02:37:03.673Z,-4.35
2019-01-20T02:39:33.456Z,-4.36
2019-01-20T02:42:02.629Z,-4.41
2019-01-20T02:44:32.076Z,-4.37
2019-01-20T02:47:01.258Z,-4.43
2019-01-20T02:49:38.116Z,-4.41
2019-01-20T02:52:07.574Z,-4.43
2019-01-20T02:54:37.608Z,-4.45
2019-01-20T02:57:07.092Z,-4.43
2019-01-20T02:59:36.832Z,-4.42
2019-01-20T03:02:06.407Z,-4.49
2019-01-20T03:04:35.968Z,-4.55
2019-01-20T03:07:05.535Z,-4.59
2019-01-20T03:09:34.752Z,-4.61
2019-01-20T03:12:03.939Z,-4.63
2019-01-20T03:14:33.145Z,-4.61
2019-01-20T03:17:02.853Z,-4.68
2019-01-20T03:19:32.639Z,-4.71
2019-01-20T03:22:02.094Z,-4.77
2019-01-20T03:24:31.258Z,-4.76
2019-01-20T03:27:00.840Z,-4.73
2019-01-20T03:29:29.999Z,-4.77
2019-01-20T03:31:59.216Z,-4.80
2019-01-20T03:34:28.409Z,-4.83
2019-01-20T03:36:57.933Z,-4.81
2019-01-20T03:39:27.807Z,-4.75
2019-01-20T03:41:57.265Z,-4.58
2019-01-20T03:44:27.125Z,-4.46
2019-01-20T03:46:56.310Z,-4.49
2019-01-20T03:49:25.866Z,-4.45
2019-01-20T03:51:55.069Z,-4.56
2019-01-20T03:54:24.913Z,-4.65
2019-01-20T03:56:54.417Z,-4.56
2019-01-20T03:59:23.846Z,-4.55
2019-01-20T04:01:53.083Z,-4.67
2019-01-20T04:04:22.241Z,-4.73
2019-01-20T04:06:51.689Z,-4.77
2019-01-20T04:09:20.891Z,-4.76
2019-01-20T04:11:50.098Z,-4.79
2019-01-20T04:14:19.270Z,-4.85
2019-01-20T04:16:49.028Z,-4.72
2019-01-20T04:19:18.203Z,-4.78
2019-01-20T04:21:47.431Z,-4.75
2019-01-20T04:24:16.599Z,-4.83
2019-01-20T04:26:45.794Z,-4.79
2019-01-20T04:29:15.531Z,-4.78
2019-01-20T04:31:45.311Z,-4.91
2019-01-20T04:34:14.751Z,-5.01
2019-01-20T04:36:44.626Z,-5.07
2019-01-20T04:39:14.119Z,-5.01
2019-01-20T04:41:43.591Z,-5.08
2019-01-20T04:44:12.766Z,-5.13
2019-01-20T04:46:42.028Z,-5.16
2019-01-20T04:49:11.737Z,-5.19
2019-01-20T04:51:40.943Z,-5.19
2019-01-20T04:56:46.283Z,-5.17
2019-01-20T04:59:15.484Z,-5.22
2019-01-20T05:01:44.957Z,-5.25
2019-01-20T05:04:14.815Z,-5.28
2019-01-20T05:06:43.993Z,-5.31
2019-01-20T05:09:13.446Z,-5.30
2019-01-20T05:11:43.001Z,-5.29
2019-01-20T05:14:12.193Z,-5.30
2019-01-20T05:16:41.927Z,-5.31
2019-01-20T05:19:11.725Z,-5.32
2019-01-20T05:21:40.912Z,-5.33
2019-01-20T05:24:10.084Z,-5.33
2019-01-20T05:26:39.246Z,-5.23
2019-01-20T05:29:08.440Z,-5.16
2019-01-20T05:31:37.873Z,-5.10
2019-01-20T05:34:07.069Z,-5.18
2019-01-20T05:36:36.228Z,-5.18
2019-01-20T05:39:08.975Z,-5.13
2019-01-20T05:41:38.130Z,-5.06
2019-01-20T05:44:07.336Z,-5.17
2019-01-20T05:46:36.508Z,-5.24
2019-01-20T05:49:06.000Z,-5.27
2019-01-20T05:51:35.456Z,-5.29
2019-01-20T05:54:05.211Z,-5.28
2019-01-20T05:56:34.668Z,-5.28
2019-01-20T05:59:04.119Z,-5.28
2019-01-20T06:01:33.561Z,-5.24
2019-01-20T06:04:03.308Z,-5.01
2019-01-20T06:06:32.756Z,-5.09
2019-01-20T06:09:02.486Z,-5.10
2019-01-20T06:11:31.935Z,-5.08
2019-01-20T06:14:01.415Z,-5.04
2019-01-20T06:16:30.839Z,-5.04
2019-01-20T06:19:00.048Z,-5.07
2019-01-20T06:21:29.476Z,-5.08
2019-01-20T06:23:58.673Z,-5.10
2019-01-20T06:26:28.098Z,-5.08
2019-01-20T06:28:57.292Z,-5.07
2019-01-20T06:31:26.718Z,-5.08
2019-01-20T06:33:56.148Z,-5.12
2019-01-20T06:36:25.334Z,-5.16
2019-01-20T06:38:54.529Z,-5.18
2019-01-20T06:41:23.730Z,-5.16
2019-01-20T06:43:53.185Z,-5.11
2019-01-20T06:46:22.628Z,-5.14
2019-01-20T06:48:52.450Z,-5.13
2019-01-20T06:51:22.457Z,-5.10
2019-01-20T06:53:51.923Z,-5.11
2019-01-20T06:56:21.375Z,-5.15
2019-01-20T06:58:50.834Z,-5.12
2019-01-20T07:01:20.031Z,-5.17
2019-01-20T07:03:49.211Z,-5.16
2019-01-20T07:06:18.403Z,-5.12
2019-01-20T07:08:48.115Z,-5.15
2019-01-20T07:11:17.333Z,-5.18
2019-01-20T07:13:46.494Z,-5.23
2019-01-20T07:16:15.681Z,-5.15
2019-01-20T07:18:44.870Z,-5.15
2019-01-20T07:21:14.360Z,-5.18
2019-01-20T07:23:43.909Z,-5.20
2019-01-20T07:26:13.128Z,-5.19
2019-01-20T07:28:42.322Z,-5.17
2019-01-20T07:31:11.818Z,-5.19
2019-01-20T07:33:41.537Z,-5.18
2019-01-20T07:36:11.618Z,-5.18
2019-01-20T07:38:40.901Z,-5.13
2019-01-20T07:41:10.663Z,-5.19
2019-01-20T07:43:40.523Z,-5.25
2019-01-20T07:46:10.235Z,-5.23
2019-01-20T07:48:39.414Z,-5.24
2019-01-20T07:51:08.936Z,-5.24
2019-01-20T07:53:38.375Z,-5.20
2019-01-20T07:56:07.586Z,-5.18
2019-01-20T07:58:36.744Z,-5.16
2019-01-20T08:01:06.068Z,-5.06
2019-01-20T08:03:35.523Z,-5.00
2019-01-20T08:06:05.612Z,-4.96
2019-01-20T08:08:35.065Z,-4.96
2019-01-20T08:11:04.902Z,-4.96
2019-01-20T08:13:34.361Z,-4.93
2019-01-20T08:16:03.866Z,-4.84
2019-01-20T08:18:33.417Z,-4.76
2019-01-20T08:21:03.250Z,-4.67
2019-01-20T08:23:32.706Z,-4.57
2019-01-20T08:26:02.324Z,-4.49
2019-01-20T08:28:31.515Z,-4.36
2019-01-20T08:31:00.669Z,-4.21
2019-01-20T08:33:29.867Z,-4.10
2019-01-20T08:35:59.729Z,-3.91
2019-01-20T08:38:28.929Z,-3.79
2019-01-20T08:40:58.711Z,-3.58
2019-01-20T08:43:31.932Z,-3.42
2019-01-20T08:46:22.395Z,-3.26
2019-01-20T08:48:52.260Z,-3.17
2019-01-20T08:51:21.791Z,-3.08
2019-01-20T08:53:51.648Z,-3.12
2019-01-20T08:56:21.085Z,-3.14
2019-01-20T08:58:50.714Z,-3.18
2019-01-20T09:01:20.168Z,-3.20
2019-01-20T09:03:49.963Z,-3.16
2019-01-20T09:06:19.664Z,-3.18
2019-01-20T09:08:48.854Z,-3.13
2019-01-20T09:11:18.486Z,-3.11
2019-01-20T09:13:47.671Z,-3.08
2019-01-20T09:16:17.153Z,-3.04
2019-01-20T09:18:46.343Z,-3.00
2019-01-20T09:21:16.122Z,-2.96
2019-01-20T09:23:45.323Z,-2.92
2019-01-20T09:26:14.792Z,-2.86
2019-01-20T09:28:43.979Z,-2.82
2019-01-20T09:31:13.705Z,-2.77
2019-01-20T09:33:43.261Z,-2.77
2019-01-20T09:36:12.433Z,-2.78
2019-01-20T09:38:41.936Z,-2.71
2019-01-20T09:41:11.133Z,-2.64
2019-01-20T09:43:47.171Z,-2.58
2019-01-20T09:46:12.045Z,-2.49
2019-01-20T09:48:42.186Z,-2.46
2019-01-20T09:51:11.924Z,-2.41
2019-01-20T09:53:41.140Z,-2.35
2019-01-20T09:56:10.337Z,-2.31
2019-01-20T09:58:39.539Z,-2.18
2019-01-20T10:01:08.756Z,-2.17
2019-01-20T10:03:38.190Z,-2.11
2019-01-20T10:06:07.674Z,-2.07
2019-01-20T10:08:37.115Z,-2.03
2019-01-20T10:11:06.345Z,-1.95
2019-01-20T10:13:35.806Z,-1.92
2019-01-20T10:16:05.457Z,-1.87
2019-01-20T10:18:53.996Z,-1.83
2019-01-20T10:21:23.468Z,-1.78
2019-01-20T10:23:52.707Z,-1.76
2019-01-20T10:26:21.944Z,-1.70
2019-01-20T10:28:51.856Z,-1.64
2019-01-20T10:31:21.136Z,-1.59
2019-01-20T10:34:11.248Z,-1.51
2019-01-20T10:36:40.705Z,-1.45
2019-01-20T10:39:12.012Z,-1.30
2019-01-20T10:41:41.483Z,-1.29
2019-01-20T10:44:10.662Z,-1.27
2019-01-20T10:46:40.149Z,-1.22
2019-01-20T10:49:09.578Z,-1.13
2019-01-20T10:51:39.619Z,-1.15
2019-01-20T10:54:08.790Z,-1.11
2019-01-20T10:56:38.273Z,-1.05
2019-01-20T10:59:07.721Z,-0.91
2019-01-20T11:01:36.950Z,-0.80
2019-01-20T11:04:06.829Z,-0.78
2019-01-20T11:06:36.030Z,-0.79
2019-01-20T11:09:44.605Z,-0.74
2019-01-20T11:12:14.108Z,-0.83
2019-01-20T11:14:43.318Z,-0.90
2019-01-20T11:17:12.533Z,-0.90
2019-01-20T11:19:41.988Z,-0.86
2019-01-20T11:22:11.470Z,-0.88
2019-01-20T11:24:40.953Z,-0.81
2019-01-20T11:27:10.157Z,-0.90
2019-01-20T11:29:39.360Z,-0.78
2019-01-20T11:32:09.058Z,-0.72
2019-01-20T11:34:38.346Z,-0.66
2019-01-20T11:37:07.558Z,-0.57
2019-01-20T11:39:37.699Z,-0.52
2019-01-20T11:42:07.206Z,-0.50
2019-01-20T11:44:37.538Z,-0.63
2019-01-20T11:47:07.648Z,-0.57
2019-01-20T11:49:37.159Z,-0.44
2019-01-20T11:52:45.860Z,-0.37
2019-01-20T11:58:23.357Z,-0.27
2019-01-20T12:00:52.914Z,-0.31
2019-01-20T12:03:41.456Z,-0.15
2019-01-20T12:06:10.915Z,-0.10
2019-01-20T12:08:40.420Z,-0.11
2019-01-20T12:11:09.620Z,-0.19
2019-01-20T12:13:39.116Z,-0.20
2019-01-20T12:16:08.820Z,-0.09
2019-01-20T12:18:38.684Z,0.02
2019-01-20T12:21:08.282Z,-0.04
2019-01-20T12:23:37.481Z,0.07
2019-01-20T12:26:06.654Z,0.03
2019-01-20T12:28:36.108Z,0.08
2019-01-20T12:31:05.742Z,0.11
2019-01-20T12:33:35.307Z,0.24
2019-01-20T12:36:04.591Z,0.19
2019-01-20T12:38:34.121Z,0.09
2019-01-20T12:41:03.422Z,0.05
2019-01-20T12:43:32.694Z,0.12
2019-01-20T12:46:01.933Z,0.16
2019-01-20T12:48:31.141Z,0.22
2019-01-20T12:51:00.550Z,0.18
2019-01-20T12:53:30.465Z,0.19
2019-01-20T12:55:59.913Z,0.14
2019-01-20T12:58:29.131Z,0.31
2019-01-20T13:00:58.325Z,0.54
2019-01-20T13:03:28.360Z,0.51
2019-01-20T13:05:58.081Z,0.36
2019-01-20T13:08:27.401Z,0.39
2019-01-20T13:10:56.582Z,0.44
2019-01-20T13:13:26.055Z,0.39
2019-01-20T13:15:57.222Z,0.47
2019-01-20T13:18:26.536Z,0.60
2019-01-20T13:20:56.304Z,0.63
2019-01-20T13:23:25.759Z,0.64
2019-01-20T13:25:55.243Z,0.58
2019-01-20T13:28:24.473Z,0.78
2019-01-20T13:30:53.958Z,0.89
2019-01-20T13:33:23.124Z,0.83
2019-01-20T13:35:52.693Z,0.91
2019-01-20T13:38:23.647Z,0.96
2019-01-20T13:41:30.921Z,1.10
2019-01-20T13:44:00.455Z,1.20
2019-01-20T13:46:29.950Z,1.27
2019-01-20T13:48:59.181Z,1.13
2019-01-20T13:51:28.422Z,1.08
2019-01-20T13:53:57.924Z,1.37
2019-01-20T13:56:27.132Z,1.42
2019-01-20T13:58:56.631Z,1.99
2019-01-20T14:01:26.959Z,1.78
2019-01-20T14:03:57.076Z,2.33
2019-01-20T14:06:26.605Z,2.53
2019-01-20T14:08:56.179Z,2.44
2019-01-20T14:11:25.722Z,2.51
2019-01-20T14:16:44.762Z,3.49
2019-01-20T14:19:32.955Z,3.91
2019-01-20T14:22:02.443Z,3.91
2019-01-20T14:24:32.162Z,3.96
2019-01-20T14:27:01.930Z,4.55
2019-01-20T14:29:31.131Z,5.29
2019-01-20T14:32:00.673Z,5.69
2019-01-20T14:34:30.135Z,5.02
2019-01-20T14:37:00.008Z,4.13
2019-01-20T14:39:29.419Z,3.84
2019-01-20T14:41:58.651Z,4.35
2019-01-20T14:44:28.128Z,4.02
2019-01-20T14:46:57.308Z,3.79
2019-01-20T14:49:26.482Z,3.49
2019-01-20T14:51:55.960Z,3.22
2019-01-20T14:54:25.140Z,2.58
2019-01-20T14:56:54.343Z,2.30
2019-01-20T14:59:23.771Z,1.91
2019-01-20T15:01:53.288Z,1.75
2019-01-20T15:04:22.728Z,1.56
2019-01-20T15:06:52.384Z,1.34
2019-01-20T15:09:21.573Z,1.05
2019-01-20T15:11:51.076Z,0.83
2019-01-20T15:14:20.505Z,0.76
2019-01-20T15:16:49.977Z,0.68
2019-01-20T15:19:19.154Z,0.52
2019-01-20T15:21:48.936Z,0.46
2019-01-20T15:24:18.405Z,0.33
2019-01-20T15:26:47.607Z,0.22
2019-01-20T15:29:17.073Z,0.13
2019-01-20T15:31:46.291Z,0.03
2019-01-20T15:34:15.722Z,-0.09
2019-01-20T15:36:44.912Z,-0.16
2019-01-20T15:39:14.131Z,-0.27
2019-01-20T15:41:43.337Z,-0.38
2019-01-20T15:44:12.877Z,-0.49
2019-01-20T15:46:42.060Z,-0.60
2019-01-20T15:49:11.575Z,-0.72
2019-01-20T15:51:41.003Z,-0.83
2019-01-20T15:54:10.235Z,-0.93
2019-01-20T15:56:39.986Z,-1.02
2019-01-20T15:59:09.197Z,-1.16
2019-01-20T16:01:38.385Z,-1.29
2019-01-20T16:04:07.854Z,-1.31
2019-01-20T16:06:37.689Z,-1.46
2019-01-20T16:09:47.817Z,-1.50
2019-01-20T16:12:28.376Z,-1.48
2019-01-20T16:14:57.589Z,-1.61
2019-01-20T16:17:26.812Z,-1.71
2019-01-20T16:19:56.311Z,-1.81
2019-01-20T16:22:25.486Z,-1.88
2019-01-20T16:24:55.210Z,-1.76
2019-01-20T16:27:24.752Z,-1.86
2019-01-20T16:29:53.970Z,-1.98
2019-01-20T16:32:23.145Z,-2.08
2019-01-20T16:34:52.359Z,-2.17
2019-01-20T16:37:21.811Z,-2.27
2019-01-20T16:39:51.290Z,-2.35
2019-01-20T16:42:20.752Z,-2.43
2019-01-20T16:44:49.961Z,-2.49
2019-01-20T16:47:19.835Z,-2.55
2019-01-20T16:49:49.607Z,-2.45
2019-01-20T16:52:18.809Z,-2.39
2019-01-20T16:54:48.286Z,-2.21
2019-01-20T16:57:17.877Z,-1.92
2019-01-20T16:59:47.116Z,-1.71
2019-01-20T17:02:16.314Z,-1.58
2019-01-20T17:04:46.175Z,-1.60
2019-01-20T17:07:15.389Z,-1.84
2019-01-20T17:09:44.863Z,-2.05
2019-01-20T17:12:14.307Z,-2.24
2019-01-20T17:14:43.540Z,-2.42
2019-01-20T17:17:12.720Z,-2.54
2019-01-20T17:19:42.190Z,-2.68
2019-01-20T17:22:11.389Z,-2.79
2019-01-20T17:24:40.600Z,-2.83
2019-01-20T17:27:10.101Z,-2.90
2019-01-20T17:29:39.334Z,-3.01
2019-01-20T17:32:08.520Z,-3.06
2019-01-20T17:34:38.287Z,-3.11
2019-01-20T17:37:08.141Z,-3.17
2019-01-20T17:39:37.893Z,-3.22
2019-01-20T17:42:07.494Z,-3.25
2019-01-20T17:44:37.099Z,-2.99
2019-01-20T17:47:06.696Z,-2.79
2019-01-20T17:49:36.951Z,-2.70
2019-01-20T17:52:06.451Z,-2.62
2019-01-20T17:54:35.632Z,-2.64
2019-01-20T17:57:04.953Z,-2.63
2019-01-20T17:59:34.172Z,-2.50
2019-01-20T18:02:03.396Z,-2.41
2019-01-20T18:04:32.900Z,-2.39
2019-01-20T18:07:02.377Z,-2.66
2019-01-20T18:09:31.942Z,-2.57
2019-01-20T18:12:01.873Z,-2.56
2019-01-20T18:14:31.108Z,-2.56
2019-01-20T18:17:00.432Z,-2.57
2019-01-20T18:19:29.643Z,-2.53
2019-01-20T18:21:59.220Z,-2.50
2019-01-20T18:24:28.674Z,-2.52
2019-01-20T18:38:00.062Z,-3.35
2019-01-20T18:40:29.555Z,-3.28
2019-01-20T18:42:59.063Z,-3.11
2019-01-20T18:45:30.652Z,-3.14
2019-01-20T18:53:37.698Z,-3.45
2019-01-20T18:56:07.188Z,-3.32
2019-01-20T18:58:36.672Z,-3.26
2019-01-20T19:01:06.756Z,-3.34
2019-01-20T19:03:36.674Z,-3.49
2019-01-20T19:06:06.285Z,-3.27
2019-01-20T19:08:35.482Z,-3.16
2019-01-20T19:37:34.349Z,-3.95
2019-01-20T19:40:03.733Z,-4.02
2019-01-20T19:42:52.078Z,-4.06
2019-01-20T19:45:21.400Z,-4.04
2019-01-20T19:47:50.626Z,-4.02
2019-01-20T19:50:20.110Z,-3.93
2019-01-20T19:52:55.394Z,-3.87
2019-01-20T20:29:49.575Z,-4.24
2019-01-20T20:32:18.809Z,-4.36
2019-01-20T20:34:48.657Z,-4.25
2019-01-20T20:37:18.569Z,-4.09
2019-01-20T20:39:48.613Z,-3.88
2019-01-20T21:12:25.700Z,-4.73
2019-01-20T21:14:54.935Z,-4.79
2019-01-20T21:17:24.506Z,-4.73
2019-01-20T21:19:56.278Z,-4.80
2019-01-20T22:00:00.474Z,-5.12
2019-01-20T22:02:30.079Z,-5.13
2019-01-20T22:04:59.276Z,-5.09
2019-01-20T22:07:28.485Z,-5.14
2019-01-20T22:33:43.422Z,-5.25
2019-01-20T22:36:12.919Z,-5.30
2019-01-20T22:38:42.372Z,-5.31
2019-01-20T22:41:12.210Z,-5.34
2019-01-20T22:49:15.179Z,-5.18
2019-01-20T22:51:44.671Z,-5.21
2019-01-20T22:54:13.875Z,-5.22
2019-01-20T22:56:43.075Z,-5.26
2019-01-20T22:59:12.817Z,-5.30
2019-01-20T23:01:42.103Z,-5.39
2019-01-20T23:04:11.842Z,-5.39
2019-01-20T23:06:41.720Z,-5.36
2019-01-20T23:09:11.245Z,-5.35
2019-01-20T23:11:40.995Z,-5.27
2019-01-20T23:14:10.187Z,-5.31
2019-01-20T23:16:39.370Z,-5.38
2019-01-20T23:19:08.535Z,-5.49
2019-01-20T23:21:37.735Z,-5.54
2019-01-20T23:24:06.939Z,-5.57
2019-01-20T23:26:36.140Z,-5.54
2019-01-20T23:29:44.706Z,-5.55
2019-01-20T23:32:14.626Z,-5.53
2019-01-20T23:34:44.679Z,-5.55
2019-01-20T23:37:15.005Z,-5.54
2019-01-20T23:39:44.437Z,-5.55
2019-01-20T23:42:13.958Z,-5.54
2019-01-20T23:44:43.136Z,-5.59
2019-01-20T23:47:15.255Z,-5.61
2019-01-20T23:49:43.776Z,-5.66
2019-01-20T23:52:31.920Z,-5.68
2019-01-20T23:55:01.638Z,-5.73
2019-01-20T23:58:10.508Z,-5.71
